Aviation Digital Data Service (ADDS)

Output produced by TAFs form (1859 UTC 19 September 2017)
found at http://www.aviationweather.gov/adds/tafs/
 
METAR text: LIML 191850Z VRB02KT 9999 FEW020 SCT060 17/10 Q1012 NOSIG
Conditions at: LIML (MILANO/LINATE , IT) observed 1850 UTC 19 September 2017
Temperature: 17.0°C (63°F)
Dewpoint: 10.0°C (50°F) [RH = 63%]
Pressure (altimeter): 29.88 inches Hg (1012.0 mb)
Winds: variable direction winds at 2 MPH (2 knots; 1.0 m/s)
Visibility: 6 or more miles (10+ km)
Ceiling: at least 12,000 feet AGL
Clouds: few clouds at 2000 feet AGL
scattered clouds at 6000 feet AGL
Weather: no significant weather observed at this time

Forecast for: LIML (MILANO/LINATE , IT)
Text: TAF LIML 191700Z 1918/2018 02010KT 9999 SCT040 SCT080
Forecast period: 1800 UTC 19 September 2017 to 1800 UTC 20 September 2017
Forecast type: FROM: standard forecast or significant change
Winds: from the NNE (20 degrees) at 12 MPH (10 knots; 5.2 m/s)
Visibility: 6 or more miles (10+ km)
Clouds: scattered clouds at 4000 feet AGL
scattered clouds at 8000 feet AGL
Weather: no significant weather forecast for this period